Time,TemperatureF,DewpointF,PressureIn,WindDirection,WindDirectionDegrees,WindSpeedMPH,WindSpeedGustMPH,Humidity,HourlyPrecipIn,Conditions,Clouds,dailyrainin,SoftwareType,DateUTC
2013-01-20 00:03:00,38.5,37.7,30.26,SE,135,1.1,0.0,97,0.00,CLR,,0.00,WeatherDisplay:10.37,2013-01-20 08:03:00,
2013-01-20 00:08:00,38.5,37.7,30.26,South,180,1.1,0.0,97,0.00,CLR,,0.00,WeatherDisplay:10.37,2013-01-20 08:08:00,
2013-01-20 00:13:00,38.5,37.7,30.25,South,180,1.1,1.1,97,0.00,CLR,,0.00,WeatherDisplay:10.37,2013-01-20 08:13:00,
2013-01-20 00:18:00,38.1,37.3,30.25,South,180,3.5,3.5,97,0.00,CLR,,0.00,WeatherDisplay:10.37,2013-01-20 08:18:00,
2013-01-20 00:23:00,37.9,37.2,30.25,SE,135,1.1,1.1,97,0.00,CLR,,0.00,WeatherDisplay:10.37,2013-01-20 08:23:00,
2013-01-20 00:28:00,37.8,37.0,30.25,SE,135,1.1,0.0,97,0.00,CLR,,0.00,WeatherDisplay:10.37,2013-01-20 08:28:00,
2013-01-20 00:33:00,37.8,37.0,30.25,SE,135,1.1,0.0,97,0.00,CLR,,0.00,WeatherDisplay:10.37,2013-01-20 08:33:00,
2013-01-20 00:38:00,37.6,36.8,30.25,SE,135,1.1,0.0,97,0.00,CLR,,0.00,WeatherDisplay:10.37,2013-01-20 08:38:00,
2013-01-20 00:43:00,37.6,36.8,30.25,South,180,3.5,3.5,97,0.00,CLR,,0.00,WeatherDisplay:10.37,2013-01-20 08:43:00,
2013-01-20 00:48:00,37.4,36.6,30.25,South,180,1.1,0.0,97,0.00,CLR,,0.00,WeatherDisplay:10.37,2013-01-20 08:48:00,
2013-01-20 00:53:00,37.2,36.4,30.25,NE,45,1.1,0.0,97,0.00,CLR,,0.00,WeatherDisplay:10.37,2013-01-20 08:53:00,
2013-01-20 00:58:00,37.0,36.3,30.25,NE,45,1.1,0.0,97,0.00,CLR,,0.00,WeatherDisplay:10.37,2013-01-20 08:58:00,
2013-01-20 01:03:00,37.0,36.3,30.25,NE,45,0.0,0.0,97,0.00,CLR,,0.00,WeatherDisplay:10.37,2013-01-20 09:03:00,
2013-01-20 01:08:00,37.0,36.3,30.25,South,180,1.1,0.0,97,0.00,CLR,,0.00,WeatherDisplay:10.37,2013-01-20 09:08:00,
2013-01-20 01:13:00,37.0,36.5,30.25,South,180,1.1,1.1,98,0.00,CLR,,0.00,WeatherDisplay:10.37,2013-01-20 09:13:00,
2013-01-20 01:18:00,36.9,36.1,30.25,South,180,1.1,1.1,97,0.00,CLR,,0.00,WeatherDisplay:10.37,2013-01-20 09:18:00,
2013-01-20 01:23:00,36.7,36.2,30.25,South,180,2.3,2.3,98,0.00,CLR,,0.00,WeatherDisplay:10.37,2013-01-20 09:23:00,
2013-01-20 01:28:00,36.5,36.0,30.25,South,180,2.3,2.3,98,0.00,CLR,,0.00,WeatherDisplay:10.37,2013-01-20 09:28:00,
2013-01-20 01:33:00,36.3,35.8,30.25,South,180,1.1,0.0,98,0.00,CLR,,0.00,WeatherDisplay:10.37,2013-01-20 09:33:00,
2013-01-20 01:37:00,36.1,35.6,30.25,South,180,1.6,0.0,98,0.00,CLR,,0.00,WeatherDisplay:10.37,2013-01-20 09:37:00,
2013-01-20 01:42:00,36.0,35.5,30.25,South,180,1.1,0.0,98,0.00,CLR,,0.00,WeatherDisplay:10.37,2013-01-20 09:42:00,
2013-01-20 01:47:00,35.8,35.3,30.25,South,180,1.1,0.0,98,0.00,CLR,,0.00,WeatherDisplay:10.37,2013-01-20 09:47:00,
2013-01-20 01:52:00,35.8,35.3,30.25,South,180,1.1,0.0,98,0.00,CLR,,0.00,WeatherDisplay:10.37,2013-01-20 09:52:00,
2013-01-20 01:57:00,35.6,35.1,30.25,South,180,1.1,0.0,98,0.00,CLR,,0.00,WeatherDisplay:10.37,2013-01-20 09:57:00,
2013-01-20 02:02:00,35.6,35.1,30.25,South,180,1.1,0.0,98,0.00,CLR,,0.00,WeatherDisplay:10.37,2013-01-20 10:02:00,
2013-01-20 02:07:00,35.6,35.1,30.25,South,180,1.1,1.1,98,0.00,CLR,,0.00,WeatherDisplay:10.37,2013-01-20 10:07:00,
2013-01-20 02:12:00,35.6,35.1,30.25,South,180,1.1,0.0,98,0.00,CLR,,0.00,WeatherDisplay:10.37,2013-01-20 10:12:00,
2013-01-20 02:17:00,35.6,35.1,30.25,SW,225,1.1,0.0,98,0.00,CLR,,0.00,WeatherDisplay:10.37,2013-01-20 10:17:00,
2013-01-20 02:22:00,35.6,35.1,30.25,East,90,1.1,0.0,98,0.00,CLR,,0.00,WeatherDisplay:10.37,2013-01-20 10:22:00,
2013-01-20 02:27:00,35.6,35.1,30.26,South,180,1.1,0.0,98,0.00,CLR,,0.00,WeatherDisplay:10.37,2013-01-20 10:27:00,
2013-01-20 02:32:00,35.4,34.9,30.25,South,180,1.1,0.0,98,0.00,CLR,,0.00,WeatherDisplay:10.37,2013-01-20 10:32:00,
2013-01-20 02:37:00,35.4,34.9,30.25,NW,315,0.7,0.0,98,0.00,CLR,,0.00,WeatherDisplay:10.37,2013-01-20 10:37:00,
2013-01-20 02:42:00,35.2,34.7,30.26,South,180,1.1,0.0,98,0.00,CLR,,0.00,WeatherDisplay:10.37,2013-01-20 10:42:00,
2013-01-20 02:47:00,35.2,34.7,30.25,SE,135,1.1,0.0,98,0.00,CLR,,0.00,WeatherDisplay:10.37,2013-01-20 10:47:00,
2013-01-20 02:52:00,35.1,34.6,30.25,SE,135,1.1,0.0,98,0.00,CLR,,0.00,WeatherDisplay:10.37,2013-01-20 10:52:00,
2013-01-20 02:57:00,35.1,34.6,30.25,South,180,1.1,0.0,98,0.00,CLR,,0.00,WeatherDisplay:10.37,2013-01-20 10:57:00,
2013-01-20 03:02:00,34.9,34.4,30.25,East,90,1.1,0.0,98,0.00,CLR,,0.00,WeatherDisplay:10.37,2013-01-20 11:02:00,
2013-01-20 03:07:00,34.9,34.4,30.25,South,180,1.1,0.0,98,0.00,CLR,,0.00,WeatherDisplay:10.37,2013-01-20 11:07:00,
2013-01-20 03:12:00,34.7,34.2,30.25,NE,45,2.3,0.0,98,0.00,CLR,,0.00,WeatherDisplay:10.37,2013-01-20 11:12:00,
2013-01-20 03:17:00,34.5,34.0,30.25,North,0,1.1,1.1,98,0.00,CLR,,0.00,WeatherDisplay:10.37,2013-01-20 11:17:00,
2013-01-20 03:22:00,34.3,33.8,30.25,North,0,1.1,0.0,98,0.00,CLR,,0.00,WeatherDisplay:10.37,2013-01-20 11:22:00,
2013-01-20 03:27:00,34.2,33.7,30.25,NE,45,0.0,0.0,98,0.00,CLR,,0.00,WeatherDisplay:10.37,2013-01-20 11:27:00,
2013-01-20 03:32:00,34.0,33.5,30.25,East,90,1.1,0.0,98,0.00,CLR,,0.00,WeatherDisplay:10.37,2013-01-20 11:32:00,
2013-01-20 03:37:00,34.0,33.5,30.25,South,180,1.1,0.0,98,0.00,CLR,,0.00,WeatherDisplay:10.37,2013-01-20 11:37:00,
2013-01-20 03:42:00,33.8,33.3,30.25,SE,135,1.1,0.0,98,0.00,CLR,,0.00,WeatherDisplay:10.37,2013-01-20 11:42:00,
2013-01-20 03:47:00,33.6,33.1,30.25,SE,135,0.0,0.0,98,0.00,CLR,,0.00,WeatherDisplay:10.37,2013-01-20 11:47:00,
2013-01-20 03:52:00,33.4,32.9,30.25,SE,135,1.1,0.0,98,0.00,CLR,,0.00,WeatherDisplay:10.37,2013-01-20 11:52:00,
2013-01-20 03:57:00,33.4,32.9,30.25,South,180,1.1,0.0,98,0.00,CLR,,0.00,WeatherDisplay:10.37,2013-01-20 11:57:00,
2013-01-20 04:02:00,33.3,32.8,30.25,South,180,2.3,0.0,98,0.00,CLR,,0.00,WeatherDisplay:10.37,2013-01-20 12:02:00,
2013-01-20 04:07:00,32.9,32.4,30.25,South,180,1.1,0.0,98,0.00,CLR,,0.00,WeatherDisplay:10.37,2013-01-20 12:07:00,
2013-01-20 04:12:00,32.9,32.4,30.25,NE,45,0.0,0.0,98,0.00,CLR,,0.00,WeatherDisplay:10.37,2013-01-20 12:12:00,
2013-01-20 04:17:00,32.7,32.2,30.25,SSW,202,1.1,0.0,98,0.00,CLR,,0.00,WeatherDisplay:10.37,2013-01-20 12:17:00,
2013-01-20 04:22:00,32.5,32.0,30.24,South,180,2.3,2.3,98,0.00,CLR,,0.00,WeatherDisplay:10.37,2013-01-20 12:22:00,
2013-01-20 04:27:00,32.5,32.0,30.24,South,180,2.3,2.3,98,0.00,CLR,,0.00,WeatherDisplay:10.37,2013-01-20 12:27:00,
2013-01-20 04:32:00,32.4,31.9,30.24,South,180,0.0,0.0,98,0.01,RA,,0.01,WeatherDisplay:10.37,2013-01-20 12:32:00,
2013-01-20 04:37:00,32.2,31.7,30.24,South,180,0.0,0.0,98,0.01,RA,,0.01,WeatherDisplay:10.37,2013-01-20 12:37:00,
2013-01-20 04:42:00,32.0,31.5,30.25,South,180,0.0,0.0,98,0.01,CLR,,0.01,WeatherDisplay:10.37,2013-01-20 12:42:00,
2013-01-20 04:47:00,32.0,31.5,30.24,SW,225,0.0,0.0,98,0.01,CLR,,0.01,WeatherDisplay:10.37,2013-01-20 12:47:00,
2013-01-20 04:52:00,32.0,31.5,30.24,West,270,0.0,0.0,98,0.01,CLR,,0.01,WeatherDisplay:10.37,2013-01-20 12:52:00,
2013-01-20 04:57:00,32.0,31.5,30.24,West,270,0.0,0.0,98,0.01,CLR,,0.01,WeatherDisplay:10.37,2013-01-20 12:57:00,
2013-01-20 05:02:00,32.0,31.5,30.24,SW,225,1.1,0.0,98,0.01,CLR,,0.01,WeatherDisplay:10.37,2013-01-20 13:02:00,
2013-01-20 05:07:00,31.6,31.1,30.24,South,180,1.1,0.0,98,0.01,CLR,,0.01,WeatherDisplay:10.37,2013-01-20 13:07:00,
2013-01-20 05:12:00,31.6,31.1,30.24,SW,225,1.1,0.0,98,0.01,CLR,,0.01,WeatherDisplay:10.37,2013-01-20 13:12:00,
2013-01-20 05:17:00,31.5,31.0,30.24,SW,225,1.1,0.0,98,0.01,CLR,,0.01,WeatherDisplay:10.37,2013-01-20 13:17:00,
2013-01-20 05:22:00,31.5,31.0,30.24,West,270,1.1,0.0,98,0.01,CLR,,0.01,WeatherDisplay:10.37,2013-01-20 13:22:00,
2013-01-20 05:27:00,31.3,30.8,30.24,NW,315,1.1,0.0,98,0.01,CLR,,0.01,WeatherDisplay:10.37,2013-01-20 13:27:00,
2013-01-20 05:32:00,31.3,30.8,30.23,West,270,0.0,0.0,98,0.00,CLR,,0.01,WeatherDisplay:10.37,2013-01-20 13:32:00,
2013-01-20 05:37:00,31.1,30.6,30.24,SW,225,0.0,0.0,98,0.00,CLR,,0.01,WeatherDisplay:10.37,2013-01-20 13:37:00,
2013-01-20 05:42:00,31.1,30.9,30.24,SW,225,0.0,0.0,99,0.00,CLR,,0.01,WeatherDisplay:10.37,2013-01-20 13:42:00,
2013-01-20 05:47:00,31.3,31.0,30.24,SW,225,0.0,0.0,99,0.00,CLR,,0.01,WeatherDisplay:10.37,2013-01-20 13:47:00,
2013-01-20 05:52:00,31.3,31.0,30.24,SW,225,0.0,0.0,99,0.00,CLR,,0.01,WeatherDisplay:10.37,2013-01-20 13:52:00,
2013-01-20 05:57:00,31.1,30.9,30.24,SW,225,0.0,0.0,99,0.00,CLR,,0.01,WeatherDisplay:10.37,2013-01-20 13:57:00,
2013-01-20 06:02:00,30.9,30.7,30.24,SW,225,0.0,0.0,99,0.00,CLR,,0.01,WeatherDisplay:10.37,2013-01-20 14:02:00,
2013-01-20 06:07:00,30.7,30.5,30.23,SW,225,0.0,0.0,99,0.00,CLR,,0.01,WeatherDisplay:10.37,2013-01-20 14:07:00,
2013-01-20 06:12:00,30.6,30.1,30.24,SW,225,0.0,0.0,98,0.00,CLR,,0.01,WeatherDisplay:10.37,2013-01-20 14:12:00,
2013-01-20 06:17:00,30.6,30.3,30.24,SW,225,0.0,0.0,99,0.00,CLR,,0.01,WeatherDisplay:10.37,2013-01-20 14:17:00,
2013-01-20 06:22:00,30.4,29.9,30.24,West,270,0.0,0.0,98,0.00,CLR,,0.01,WeatherDisplay:10.37,2013-01-20 14:22:00,
2013-01-20 06:27:00,30.4,30.1,30.23,West,270,0.0,0.0,99,0.00,CLR,,0.01,WeatherDisplay:10.37,2013-01-20 14:27:00,
2013-01-20 06:32:00,30.2,29.7,30.23,West,270,0.0,0.0,98,0.00,CLR,,0.01,WeatherDisplay:10.37,2013-01-20 14:32:00,
2013-01-20 06:37:00,30.0,29.8,30.23,SW,225,0.0,0.0,99,0.00,CLR,,0.01,WeatherDisplay:10.37,2013-01-20 14:37:00,
2013-01-20 06:42:00,30.0,29.8,30.23,SW,225,0.0,0.0,99,0.00,CLR,,0.01,WeatherDisplay:10.37,2013-01-20 14:42:00,
2013-01-20 06:47:00,29.8,29.6,30.23,SW,225,0.0,0.0,99,0.00,CLR,,0.01,WeatherDisplay:10.37,2013-01-20 14:47:00,
2013-01-20 06:52:00,29.8,29.6,30.23,SW,225,0.0,0.0,99,0.00,CLR,,0.01,WeatherDisplay:10.37,2013-01-20 14:52:00,
2013-01-20 06:57:00,29.7,29.4,30.23,SW,225,0.0,0.0,99,0.00,CLR,,0.01,WeatherDisplay:10.37,2013-01-20 14:57:00,
2013-01-20 07:02:00,29.7,29.4,30.23,SW,225,0.0,0.0,99,0.00,CLR,,0.01,WeatherDisplay:10.37,2013-01-20 15:02:00,
2013-01-20 07:07:00,29.5,29.2,30.23,SW,225,0.0,0.0,99,0.00,CLR,,0.01,WeatherDisplay:10.37,2013-01-20 15:07:00,
2013-01-20 07:12:00,29.3,29.1,30.23,SW,225,0.0,0.0,99,0.00,CLR,,0.01,WeatherDisplay:10.37,2013-01-20 15:12:00,
2013-01-20 07:17:00,29.1,28.9,30.24,SW,225,0.0,0.0,99,0.00,CLR,,0.01,WeatherDisplay:10.37,2013-01-20 15:17:00,
2013-01-20 07:22:00,28.9,28.7,30.24,SW,225,0.0,0.0,99,0.00,CLR,,0.01,WeatherDisplay:10.37,2013-01-20 15:22:00,
2013-01-20 07:27:00,28.8,28.5,30.24,SW,225,0.0,0.0,99,0.00,CLR,,0.01,WeatherDisplay:10.37,2013-01-20 15:27:00,
2013-01-20 07:32:00,28.8,28.5,30.24,SW,225,0.0,0.0,99,0.00,CLR,,0.01,WeatherDisplay:10.37,2013-01-20 15:32:00,
2013-01-20 07:37:00,28.6,28.3,30.24,SW,225,0.0,0.0,99,0.00,CLR,,0.01,WeatherDisplay:10.37,2013-01-20 15:37:00,
2013-01-20 07:42:00,28.4,28.2,30.24,West,270,0.0,0.0,99,0.00,CLR,,0.01,WeatherDisplay:10.37,2013-01-20 15:42:00,
2013-01-20 07:47:00,28.4,28.2,30.23,SW,225,0.0,0.0,99,0.00,CLR,,0.01,WeatherDisplay:10.37,2013-01-20 15:47:00,
2013-01-20 07:52:00,28.4,28.2,30.24,SW,225,0.0,0.0,99,0.00,CLR,,0.01,WeatherDisplay:10.37,2013-01-20 15:52:00,
2013-01-20 07:57:00,28.4,28.2,30.24,SW,225,0.0,0.0,99,0.00,CLR,,0.01,WeatherDisplay:10.37,2013-01-20 15:57:00,
2013-01-20 08:02:00,28.2,28.0,30.24,SW,225,0.0,0.0,99,0.00,CLR,,0.01,WeatherDisplay:10.37,2013-01-20 16:02:00,
2013-01-20 08:07:00,28.0,27.8,30.24,SW,225,0.0,0.0,99,0.00,CLR,,0.01,WeatherDisplay:10.37,2013-01-20 16:07:00,
2013-01-20 08:12:00,27.9,27.4,30.24,West,270,0.0,0.0,98,0.00,CLR,,0.01,WeatherDisplay:10.37,2013-01-20 16:12:00,
2013-01-20 08:17:00,28.0,27.8,30.24,West,270,0.0,0.0,99,0.00,CLR,,0.01,WeatherDisplay:10.37,2013-01-20 16:17:00,
2013-01-20 08:22:00,28.0,27.8,30.24,SW,225,0.0,0.0,99,0.00,CLR,,0.01,WeatherDisplay:10.37,2013-01-20 16:22:00,
2013-01-20 08:27:00,28.2,28.0,30.24,SW,225,0.0,0.0,99,0.00,CLR,,0.01,WeatherDisplay:10.37,2013-01-20 16:27:00,
2013-01-20 08:32:00,28.6,28.3,30.24,SW,225,0.0,0.0,99,0.00,CLR,,0.01,WeatherDisplay:10.37,2013-01-20 16:32:00,
2013-01-20 08:37:00,28.9,28.7,30.24,SW,225,0.0,0.0,99,0.00,CLR,,0.01,WeatherDisplay:10.37,2013-01-20 16:37:00,
2013-01-20 08:42:00,29.3,29.1,30.24,SW,225,0.0,0.0,99,0.00,CLR,,0.01,WeatherDisplay:10.37,2013-01-20 16:42:00,
2013-01-20 08:47:00,29.7,29.4,30.24,South,180,0.0,0.0,99,0.00,CLR,,0.01,WeatherDisplay:10.37,2013-01-20 16:47:00,
2013-01-20 08:52:00,29.8,29.6,30.24,South,180,0.0,0.0,99,0.00,CLR,,0.01,WeatherDisplay:10.37,2013-01-20 16:52:00,
2013-01-20 08:57:00,30.0,29.8,30.25,South,180,0.0,0.0,99,0.00,CLR,,0.01,WeatherDisplay:10.37,2013-01-20 16:57:00,
2013-01-20 09:02:00,30.2,30.0,30.25,South,180,0.0,0.0,99,0.00,CLR,,0.01,WeatherDisplay:10.37,2013-01-20 17:02:00,
2013-01-20 09:07:00,30.4,30.1,30.25,South,180,0.0,0.0,99,0.00,CLR,,0.01,WeatherDisplay:10.37,2013-01-20 17:07:00,
2013-01-20 09:12:00,30.6,30.3,30.25,South,180,0.0,0.0,99,0.00,CLR,,0.01,WeatherDisplay:10.37,2013-01-20 17:12:00,
2013-01-20 09:17:00,30.9,30.7,30.25,South,180,0.0,0.0,99,0.00,CLR,,0.01,WeatherDisplay:10.37,2013-01-20 17:17:00,
2013-01-20 09:22:00,31.3,31.0,30.25,SE,135,0.0,0.0,99,0.00,CLR,,0.01,WeatherDisplay:10.37,2013-01-20 17:22:00,
2013-01-20 09:27:00,31.6,31.4,30.25,South,180,0.0,0.0,99,0.00,CLR,,0.01,WeatherDisplay:10.37,2013-01-20 17:27:00,
2013-01-20 09:32:00,32.2,31.9,30.25,South,180,0.0,0.0,99,0.00,CLR,,0.01,WeatherDisplay:10.37,2013-01-20 17:32:00,
2013-01-20 09:37:00,32.5,32.3,30.25,SE,135,0.0,0.0,99,0.00,CLR,,0.01,WeatherDisplay:10.37,2013-01-20 17:37:00,
2013-01-20 09:42:00,32.7,32.5,30.25,South,180,0.0,0.0,99,0.00,CLR,,0.01,WeatherDisplay:10.37,2013-01-20 17:42:00,
2013-01-20 09:47:00,33.1,32.8,30.25,South,180,0.0,0.0,99,0.00,CLR,,0.01,WeatherDisplay:10.37,2013-01-20 17:47:00,
2013-01-20 09:52:00,35.8,35.5,30.25,South,180,2.3,0.0,99,0.00,CLR,,0.01,WeatherDisplay:10.37,2013-01-20 17:52:00,
2013-01-20 09:57:00,39.6,39.3,30.25,South,180,2.3,2.3,99,0.00,CLR,,0.01,WeatherDisplay:10.37,2013-01-20 17:57:00,
2013-01-20 10:02:00,42.1,41.8,30.25,South,180,2.3,2.3,99,0.00,CLR,,0.01,WeatherDisplay:10.37,2013-01-20 18:02:00,
2013-01-20 10:07:00,43.7,43.4,30.25,South,180,2.3,2.3,99,0.00,CLR,,0.01,WeatherDisplay:10.37,2013-01-20 18:07:00,
2013-01-20 10:12:00,45.1,40.9,30.25,South,180,2.3,2.3,85,0.00,CLR,,0.01,WeatherDisplay:10.37,2013-01-20 18:12:00,
2013-01-20 10:17:00,46.9,41.1,30.25,South,180,2.3,2.3,80,0.00,CLR,,0.01,WeatherDisplay:10.37,2013-01-20 18:17:00,
2013-01-20 10:22:00,48.6,40.6,30.25,South,180,3.5,3.5,74,0.00,CLR,,0.01,WeatherDisplay:10.37,2013-01-20 18:22:00,
2013-01-20 10:27:00,49.5,40.4,30.25,South,180,2.3,2.3,71,0.00,CLR,,0.01,WeatherDisplay:10.37,2013-01-20 18:27:00,
2013-01-20 10:32:00,51.1,40.1,30.25,South,180,3.5,3.5,66,0.00,CLR,,0.01,WeatherDisplay:10.37,2013-01-20 18:32:00,
2013-01-20 10:37:00,51.4,38.8,30.25,South,180,3.5,3.5,62,0.00,CLR,,0.01,WeatherDisplay:10.37,2013-01-20 18:37:00,
2013-01-20 10:42:00,52.9,41.4,30.25,South,180,2.3,2.3,65,0.00,CLR,,0.01,WeatherDisplay:10.37,2013-01-20 18:42:00,
2013-01-20 10:47:00,54.9,42.9,30.25,SE,135,2.3,2.3,64,0.00,CLR,,0.01,WeatherDisplay:10.37,2013-01-20 18:47:00,
2013-01-20 10:52:00,55.6,40.1,30.25,South,180,1.1,1.1,56,0.00,CLR,,0.01,WeatherDisplay:10.37,2013-01-20 18:52:00,
2013-01-20 10:57:00,57.2,43.0,30.25,South,180,2.3,2.3,59,0.00,CLR,,0.01,WeatherDisplay:10.37,2013-01-20 18:57:00,
2013-01-20 11:02:00,57.6,40.1,30.24,South,180,3.5,3.5,52,0.00,CLR,,0.01,WeatherDisplay:10.37,2013-01-20 19:02:00,
2013-01-20 11:07:00,58.5,41.4,30.24,SE,135,2.3,2.3,53,0.00,CLR,,0.01,WeatherDisplay:10.37,2013-01-20 19:07:00,
2013-01-20 11:12:00,59.5,42.9,30.24,NE,45,1.1,1.1,54,0.00,CLR,,0.01,WeatherDisplay:10.37,2013-01-20 19:12:00,
2013-01-20 11:16:00,60.8,45.5,30.24,NE,45,1.1,0.0,57,0.00,CLR,,0.01,WeatherDisplay:10.37,2013-01-20 19:16:00,
2013-01-20 11:21:00,63.0,47.0,30.24,SE,135,1.1,0.0,56,0.00,CLR,,0.01,WeatherDisplay:10.37,2013-01-20 19:21:00,
2013-01-20 11:26:00,63.9,44.9,30.24,NE,45,1.1,0.0,50,0.00,CLR,,0.01,WeatherDisplay:10.37,2013-01-20 19:26:00,
2013-01-20 11:31:00,64.4,40.8,30.23,North,0,1.1,1.1,42,0.00,CLR,,0.01,WeatherDisplay:10.37,2013-01-20 19:31:00,
2013-01-20 11:36:00,64.2,41.8,30.23,NE,45,1.1,1.1,44,0.00,CLR,,0.01,WeatherDisplay:10.37,2013-01-20 19:36:00,
2013-01-20 11:41:00,64.4,40.2,30.23,NE,45,1.1,0.0,41,0.00,CLR,,0.01,WeatherDisplay:10.37,2013-01-20 19:41:00,
2013-01-20 11:46:00,64.0,41.1,30.23,NE,45,1.1,0.0,43,0.00,CLR,,0.01,WeatherDisplay:10.37,2013-01-20 19:46:00,
2013-01-20 11:51:00,64.4,42.6,30.22,South,180,1.1,0.0,45,0.00,CLR,,0.01,WeatherDisplay:10.37,2013-01-20 19:51:00,
2013-01-20 11:56:00,64.4,37.5,30.22,NE,45,3.5,3.5,37,0.00,CLR,,0.01,WeatherDisplay:10.37,2013-01-20 19:56:00,
2013-01-20 12:01:00,64.8,39.9,30.22,West,270,1.1,0.0,40,0.00,CLR,,0.01,WeatherDisplay:10.37,2013-01-20 20:01:00,
2013-01-20 12:06:00,65.7,40.0,30.22,SE,135,3.5,3.5,39,0.00,CLR,,0.01,WeatherDisplay:10.37,2013-01-20 20:06:00,
2013-01-20 12:11:00,64.9,38.7,30.21,SE,135,2.3,2.3,38,0.00,CLR,,0.01,WeatherDisplay:10.37,2013-01-20 20:11:00,
2013-01-20 12:16:00,63.3,35.9,30.21,SW,225,3.5,3.5,36,0.00,CLR,,0.01,WeatherDisplay:10.37,2013-01-20 20:16:00,
2013-01-20 12:21:00,61.7,39.0,30.21,SE,135,3.5,3.5,43,0.00,CLR,,0.01,WeatherDisplay:10.37,2013-01-20 20:21:00,
2013-01-20 12:26:00,60.3,37.1,30.21,SE,135,3.5,3.5,42,0.00,CLR,,0.01,WeatherDisplay:10.37,2013-01-20 20:26:00,
2013-01-20 12:31:00,57.9,39.4,30.21,SE,135,3.5,3.5,50,0.00,CLR,,0.01,WeatherDisplay:10.37,2013-01-20 20:31:00,
2013-01-20 12:36:00,56.1,40.6,30.20,South,180,3.8,3.8,56,0.00,CLR,,0.01,WeatherDisplay:10.37,2013-01-20 20:36:00,
2013-01-20 12:41:00,55.4,41.3,30.20,South,180,3.5,0.0,59,0.00,RA,,0.01,WeatherDisplay:10.37,2013-01-20 20:41:00,
2013-01-20 12:46:00,55.0,41.4,30.20,SW,225,3.5,0.0,60,0.00,RA,,0.01,WeatherDisplay:10.37,2013-01-20 20:46:00,
2013-01-20 12:51:00,54.9,40.8,30.19,East,90,1.1,1.1,59,0.00,CLR,,0.01,WeatherDisplay:10.37,2013-01-20 20:51:00,
2013-01-20 12:57:00,54.5,40.9,30.19,SW,225,2.3,2.3,60,0.00,CLR,,0.01,WeatherDisplay:10.37,2013-01-20 20:57:00,
2013-01-20 13:02:00,54.9,41.7,30.19,East,90,3.5,0.0,61,0.00,CLR,,0.01,WeatherDisplay:10.37,2013-01-20 21:02:00,
2013-01-20 13:07:00,56.1,42.8,30.19,NW,315,1.1,0.0,61,0.00,CLR,,0.01,WeatherDisplay:10.37,2013-01-20 21:07:00,
2013-01-20 13:12:00,57.7,42.6,30.19,NE,45,1.1,0.0,57,0.00,CLR,,0.01,WeatherDisplay:10.37,2013-01-20 21:12:00,
2013-01-20 13:17:00,59.4,42.7,30.19,SW,225,1.1,0.0,54,0.00,CLR,,0.01,WeatherDisplay:10.37,2013-01-20 21:17:00,
2013-01-20 13:22:00,60.3,40.5,30.19,South,180,2.3,0.0,48,0.00,CLR,,0.01,WeatherDisplay:10.37,2013-01-20 21:22:00,
2013-01-20 13:27:00,61.3,41.5,30.18,East,90,3.5,3.5,48,0.00,CLR,,0.01,WeatherDisplay:10.37,2013-01-20 21:27:00,
2013-01-20 13:32:00,63.7,42.5,30.18,East,90,3.5,3.5,46,0.00,CLR,,0.01,WeatherDisplay:10.37,2013-01-20 21:32:00,
2013-01-20 13:40:00,65.3,40.3,30.17,East,90,2.3,2.3,40,0.00,CLR,,0.01,WeatherDisplay:10.37,2013-01-20 21:40:00,
2013-01-20 13:45:00,66.0,41.0,30.18,NE,45,3.5,3.5,40,0.00,CLR,,0.01,WeatherDisplay:10.37,2013-01-20 21:45:00,
2013-01-20 13:50:00,66.4,40.0,30.17,East,90,3.5,3.5,38,0.00,CLR,,0.01,WeatherDisplay:10.37,2013-01-20 21:50:00,
2013-01-20 13:55:00,68.0,40.7,30.17,NE,45,3.5,3.5,37,0.00,CLR,,0.01,WeatherDisplay:10.37,2013-01-20 21:55:00,
2013-01-20 14:01:00,68.6,-23.3,25.70,North,0,0.0,0.0,2,0.00,CLR,,0.01,WeatherDisplay:10.37,2013-01-20 22:01:00,
2013-01-20 14:06:00,71.2,-3.4,27.97,North,0,0.0,0.0,5,0.00,CLR,,0.01,WeatherDisplay:10.37,2013-01-20 22:06:00,
2013-01-20 14:13:00,71.8,36.0,30.17,North,0,3.5,0.0,27,0.00,CLR,,0.01,WeatherDisplay:10.37,2013-01-20 22:13:00,
2013-01-20 14:18:00,72.0,37.1,30.17,NE,45,3.5,3.5,28,0.00,CLR,,0.01,WeatherDisplay:10.37,2013-01-20 22:18:00,
2013-01-20 14:23:00,72.3,37.4,30.17,NE,45,3.5,3.5,28,0.00,CLR,,0.01,WeatherDisplay:10.37,2013-01-20 22:23:00,
2013-01-20 14:28:00,73.2,37.2,30.17,SE,135,2.3,2.3,27,0.00,CLR,,0.01,WeatherDisplay:10.37,2013-01-20 22:28:00,
2013-01-20 14:33:00,72.9,36.0,30.17,NE,45,3.5,3.5,26,0.00,CLR,,0.01,WeatherDisplay:10.37,2013-01-20 22:33:00,
2013-01-20 14:38:00,72.5,38.4,30.17,East,90,1.1,1.1,29,0.00,CLR,,0.01,WeatherDisplay:10.37,2013-01-20 22:38:00,
2013-01-20 14:43:00,72.1,38.1,30.16,NE,45,3.5,3.5,29,0.00,CLR,,0.01,WeatherDisplay:10.37,2013-01-20 22:43:00,
2013-01-20 14:48:00,72.1,39.0,30.17,NE,45,2.2,2.2,30,0.00,CLR,,0.01,WeatherDisplay:10.37,2013-01-20 22:48:00,
2013-01-20 14:53:00,72.5,38.4,30.17,NE,45,2.3,2.3,29,0.00,CLR,,0.01,WeatherDisplay:10.37,2013-01-20 22:53:00,
2013-01-20 14:58:00,72.7,39.4,30.16,NE,45,2.3,2.3,30,0.00,CLR,,0.01,WeatherDisplay:10.37,2013-01-20 22:58:00,
2013-01-20 15:03:00,72.9,40.4,30.16,NE,45,1.1,0.0,31,0.00,CLR,,0.01,WeatherDisplay:10.37,2013-01-20 23:03:00,
2013-01-20 15:09:00,72.7,37.7,30.16,NE,45,3.5,3.5,28,0.00,CLR,,0.01,WeatherDisplay:10.37,2013-01-20 23:09:00,
2013-01-20 15:14:00,72.1,37.2,30.16,NE,45,3.5,3.5,28,0.00,CLR,,0.01,WeatherDisplay:10.37,2013-01-20 23:14:00,
2013-01-20 15:19:00,70.9,37.0,30.16,NE,45,3.1,3.1,29,0.00,CLR,,0.01,WeatherDisplay:10.37,2013-01-20 23:19:00,
2013-01-20 15:24:00,67.8,36.9,30.15,NE,45,3.5,3.5,32,0.00,CLR,,0.01,WeatherDisplay:10.37,2013-01-20 23:24:00,
2013-01-20 15:29:00,64.2,38.1,30.15,NE,45,2.3,2.3,38,0.00,CLR,,0.01,WeatherDisplay:10.37,2013-01-20 23:29:00,
2013-01-20 15:34:00,61.9,39.1,30.15,NE,45,3.5,3.5,43,0.00,CLR,,0.01,WeatherDisplay:10.37,2013-01-20 23:34:00,
2013-01-20 15:39:00,60.1,39.8,30.15,NE,45,3.5,3.5,47,0.00,CLR,,0.01,WeatherDisplay:10.37,2013-01-20 23:39:00,
2013-01-20 15:44:00,58.6,40.0,30.14,NE,45,2.3,2.3,50,0.00,CLR,,0.01,WeatherDisplay:10.37,2013-01-20 23:44:00,
2013-01-20 15:49:00,57.2,40.7,30.15,NW,315,3.5,3.5,54,0.00,CLR,,0.01,WeatherDisplay:10.37,2013-01-20 23:49:00,
2013-01-20 15:54:00,56.5,40.5,30.14,North,0,1.1,0.0,55,0.00,CLR,,0.01,WeatherDisplay:10.37,2013-01-20 23:54:00,
2013-01-20 15:59:00,55.2,42.8,30.14,South,180,1.1,0.0,63,0.00,CLR,,0.01,WeatherDisplay:10.37,2013-01-20 23:59:00,
2013-01-20 16:05:00,54.1,43.4,30.14,SW,225,1.1,0.0,67,0.00,CLR,,0.01,WeatherDisplay:10.37,2013-01-21 00:05:00,
2013-01-20 16:10:00,52.2,43.4,30.14,SW,225,1.6,0.0,72,0.00,CLR,,0.01,WeatherDisplay:10.37,2013-01-21 00:10:00,
2013-01-20 16:15:00,50.9,43.3,30.14,SW,225,1.1,0.0,75,0.00,CLR,,0.01,WeatherDisplay:10.37,2013-01-21 00:15:00,
2013-01-20 16:20:00,49.8,43.2,30.14,SW,225,1.1,0.0,78,0.00,CLR,,0.01,WeatherDisplay:10.37,2013-01-21 00:20:00,
2013-01-20 16:25:00,49.1,43.2,30.14,SW,225,2.3,2.3,80,0.00,CLR,,0.01,WeatherDisplay:10.37,2013-01-21 00:25:00,
2013-01-20 16:30:00,48.6,43.0,30.14,SW,225,2.3,2.3,81,0.00,CLR,,0.01,WeatherDisplay:10.37,2013-01-21 00:30:00,
2013-01-20 16:35:00,48.0,42.5,30.15,South,180,1.1,0.0,81,0.00,CLR,,0.01,WeatherDisplay:10.37,2013-01-21 00:35:00,
2013-01-20 16:40:00,47.5,42.3,30.15,SW,225,3.5,3.5,82,0.00,CLR,,0.01,WeatherDisplay:10.37,2013-01-21 00:40:00,
2013-01-20 16:45:00,46.8,41.6,30.15,SW,225,1.1,0.0,82,0.00,CLR,,0.01,WeatherDisplay:10.37,2013-01-21 00:45:00,
2013-01-20 16:50:00,46.2,41.3,30.15,South,180,2.3,2.3,83,0.00,CLR,,0.01,WeatherDisplay:10.37,2013-01-21 00:50:00,
2013-01-20 16:55:00,45.7,41.4,30.15,SW,225,2.3,2.3,85,0.00,CLR,,0.01,WeatherDisplay:10.37,2013-01-21 00:55:00,
2013-01-20 17:00:00,45.0,40.7,30.15,SW,225,1.1,0.0,85,0.00,CLR,,0.01,WeatherDisplay:10.37,2013-01-21 01:00:00,
2013-01-20 17:05:00,44.2,40.3,30.15,SW,225,2.3,2.3,86,0.00,CLR,,0.01,WeatherDisplay:10.37,2013-01-21 01:05:00,
2013-01-20 17:10:00,43.7,40.1,30.16,South,180,2.3,2.3,87,0.00,CLR,,0.01,WeatherDisplay:10.37,2013-01-21 01:10:00,
2013-01-20 17:15:00,43.2,39.6,30.16,SW,225,3.1,3.1,87,0.00,CLR,,0.01,WeatherDisplay:10.37,2013-01-21 01:15:00,
2013-01-20 17:20:00,42.8,39.5,30.16,South,180,2.3,0.0,88,0.00,CLR,,0.01,WeatherDisplay:10.37,2013-01-21 01:20:00,
2013-01-20 17:25:00,42.4,39.4,30.16,SW,225,2.3,0.0,89,0.00,CLR,,0.01,WeatherDisplay:10.37,2013-01-21 01:25:00,
2013-01-20 17:30:00,42.3,39.2,30.16,SW,225,1.1,0.0,89,0.00,CLR,,0.01,WeatherDisplay:10.37,2013-01-21 01:30:00,
2013-01-20 17:35:00,41.7,38.7,30.16,SW,225,2.2,2.2,89,0.00,CLR,,0.01,WeatherDisplay:10.37,2013-01-21 01:35:00,
2013-01-20 17:40:00,41.5,38.8,30.16,SW,225,1.1,0.0,90,0.00,CLR,,0.01,WeatherDisplay:10.37,2013-01-21 01:40:00,
2013-01-20 17:45:00,41.2,38.8,30.16,SW,225,2.3,2.3,91,0.00,CLR,,0.01,WeatherDisplay:10.37,2013-01-21 01:45:00,
2013-01-20 17:50:00,40.8,38.4,30.16,SW,225,0.0,0.0,91,0.00,CLR,,0.01,WeatherDisplay:10.37,2013-01-21 01:50:00,
2013-01-20 17:55:00,40.5,38.0,30.17,SW,225,0.0,0.0,91,0.00,CLR,,0.01,WeatherDisplay:10.37,2013-01-21 01:55:00,
2013-01-20 18:00:00,39.9,37.8,30.17,SW,225,1.1,1.1,92,0.00,CLR,,0.01,WeatherDisplay:10.37,2013-01-21 02:00:00,
2013-01-20 18:05:00,39.6,37.4,30.17,SW,225,0.0,0.0,92,0.00,CLR,,0.01,WeatherDisplay:10.37,2013-01-21 02:05:00,
2013-01-20 18:10:00,39.0,36.9,30.17,SW,225,1.1,0.0,92,0.00,CLR,,0.01,WeatherDisplay:10.37,2013-01-21 02:10:00,
2013-01-20 18:15:00,38.5,36.4,30.17,South,180,1.1,0.0,92,0.00,CLR,,0.01,WeatherDisplay:10.37,2013-01-21 02:15:00,
2013-01-20 18:20:00,37.9,35.8,30.17,SW,225,0.0,0.0,92,0.00,CLR,,0.01,WeatherDisplay:10.37,2013-01-21 02:20:00,
2013-01-20 18:25:00,37.8,35.9,30.17,SW,225,1.1,0.0,93,0.00,CLR,,0.01,WeatherDisplay:10.37,2013-01-21 02:25:00,
2013-01-20 18:30:00,37.2,35.4,30.17,SW,225,0.0,0.0,93,0.00,CLR,,0.01,WeatherDisplay:10.37,2013-01-21 02:30:00,
2013-01-20 18:35:00,36.9,35.0,30.17,SW,225,1.1,0.0,93,0.00,CLR,,0.01,WeatherDisplay:10.37,2013-01-21 02:35:00,
2013-01-20 18:40:00,36.7,34.8,30.17,SW,225,1.6,1.6,93,0.00,CLR,,0.01,WeatherDisplay:10.37,2013-01-21 02:40:00,
2013-01-20 18:45:00,36.7,34.8,30.17,SW,225,1.1,0.0,93,0.00,CLR,,0.01,WeatherDisplay:10.37,2013-01-21 02:45:00,
2013-01-20 18:50:00,36.3,34.8,30.17,SW,225,1.1,0.0,94,0.00,CLR,,0.01,WeatherDisplay:10.37,2013-01-21 02:50:00,
2013-01-20 18:55:00,36.1,34.3,30.17,SW,225,1.1,0.0,93,0.00,CLR,,0.01,WeatherDisplay:10.37,2013-01-21 02:55:00,
2013-01-20 19:00:00,35.8,34.2,30.17,SW,225,1.1,0.0,94,0.00,CLR,,0.01,WeatherDisplay:10.37,2013-01-21 03:00:00,
2013-01-20 19:05:00,35.6,34.0,30.17,SW,225,0.0,0.0,94,0.00,CLR,,0.01,WeatherDisplay:10.37,2013-01-21 03:05:00,
2013-01-20 19:10:00,35.2,33.7,30.17,SW,225,0.0,0.0,94,0.00,CLR,,0.01,WeatherDisplay:10.37,2013-01-21 03:10:00,
2013-01-20 19:15:00,34.9,33.3,30.17,SW,225,1.1,0.0,94,0.00,CLR,,0.01,WeatherDisplay:10.37,2013-01-21 03:15:00,
2013-01-20 19:20:00,34.5,33.0,30.18,SW,225,0.0,0.0,94,0.00,CLR,,0.01,WeatherDisplay:10.37,2013-01-21 03:20:00,
2013-01-20 19:25:00,34.3,32.8,30.18,SW,225,0.0,0.0,94,0.00,CLR,,0.01,WeatherDisplay:10.37,2013-01-21 03:25:00,
2013-01-20 19:30:00,34.0,32.4,30.18,SW,225,1.1,0.0,94,0.00,CLR,,0.01,WeatherDisplay:10.37,2013-01-21 03:30:00,
2013-01-20 19:35:00,33.8,32.3,30.17,SW,225,1.1,0.0,94,0.00,CLR,,0.01,WeatherDisplay:10.37,2013-01-21 03:35:00,
2013-01-20 19:40:00,33.8,32.3,30.17,SW,225,1.1,0.0,94,0.00,CLR,,0.01,WeatherDisplay:10.37,2013-01-21 03:40:00,
2013-01-20 19:45:00,33.4,31.9,30.17,SW,225,0.0,0.0,94,0.00,CLR,,0.01,WeatherDisplay:10.37,2013-01-21 03:45:00,
2013-01-20 19:50:00,33.3,31.7,30.17,SW,225,0.0,0.0,94,0.00,CLR,,0.01,WeatherDisplay:10.37,2013-01-21 03:50:00,
2013-01-20 19:56:00,33.1,31.5,30.17,SW,225,0.0,0.0,94,0.00,CLR,,0.01,WeatherDisplay:10.37,2013-01-21 03:56:00,
2013-01-20 20:01:00,32.9,31.4,30.17,SW,225,0.0,0.0,94,0.00,CLR,,0.01,WeatherDisplay:10.37,2013-01-21 04:01:00,
2013-01-20 20:06:00,32.7,31.4,30.17,SW,225,0.0,0.0,95,0.00,CLR,,0.01,WeatherDisplay:10.37,2013-01-21 04:06:00,
2013-01-20 20:11:00,32.7,31.4,30.17,SW,225,0.0,0.0,95,0.00,CLR,,0.01,WeatherDisplay:10.37,2013-01-21 04:11:00,
2013-01-20 20:16:00,32.7,31.4,30.17,SW,225,1.1,0.0,95,0.00,CLR,,0.01,WeatherDisplay:10.37,2013-01-21 04:16:00,
2013-01-20 20:21:00,32.4,31.1,30.17,SW,225,0.0,0.0,95,0.00,CLR,,0.01,WeatherDisplay:10.37,2013-01-21 04:21:00,
2013-01-20 20:26:00,32.2,30.9,30.17,SW,225,0.0,0.0,95,0.00,CLR,,0.01,WeatherDisplay:10.37,2013-01-21 04:26:00,
2013-01-20 20:31:00,32.0,30.7,30.18,SW,225,0.0,0.0,95,0.00,CLR,,0.01,WeatherDisplay:10.37,2013-01-21 04:31:00,
2013-01-20 20:36:00,32.0,30.7,30.18,SW,225,0.0,0.0,95,0.00,CLR,,0.01,WeatherDisplay:10.37,2013-01-21 04:36:00,
2013-01-20 20:41:00,31.8,30.6,30.18,SW,225,1.1,0.0,95,0.00,CLR,,0.01,WeatherDisplay:10.37,2013-01-21 04:41:00,
2013-01-20 20:46:00,31.6,30.4,30.17,SW,225,0.0,0.0,95,0.00,CLR,,0.01,WeatherDisplay:10.37,2013-01-21 04:46:00,
2013-01-20 20:51:00,31.6,30.4,30.17,SW,225,0.0,0.0,95,0.00,CLR,,0.01,WeatherDisplay:10.37,2013-01-21 04:51:00,
2013-01-20 20:56:00,31.6,30.4,30.17,SW,225,0.0,0.0,95,0.00,CLR,,0.01,WeatherDisplay:10.37,2013-01-21 04:56:00,
2013-01-20 21:03:00,31.5,30.2,30.17,SW,225,0.0,0.0,95,0.00,CLR,,0.01,WeatherDisplay:10.37,2013-01-21 05:03:00,
2013-01-20 21:08:00,31.5,30.2,30.17,SW,225,0.0,0.0,95,0.00,CLR,,0.01,WeatherDisplay:10.37,2013-01-21 05:08:00,
2013-01-20 21:13:00,31.5,30.2,30.17,SW,225,1.1,0.0,95,0.00,CLR,,0.01,WeatherDisplay:10.37,2013-01-21 05:13:00,
2013-01-20 21:18:00,31.3,30.0,30.17,SW,225,0.0,0.0,95,0.00,CLR,,0.01,WeatherDisplay:10.37,2013-01-21 05:18:00,
2013-01-20 21:23:00,31.3,30.0,30.17,SW,225,0.0,0.0,95,0.00,CLR,,0.01,WeatherDisplay:10.37,2013-01-21 05:23:00,
2013-01-20 21:28:00,31.1,30.1,30.17,SW,225,0.0,0.0,96,0.00,CLR,,0.01,WeatherDisplay:10.37,2013-01-21 05:28:00,
2013-01-20 21:33:00,31.1,29.8,30.17,SW,225,0.0,0.0,95,0.00,CLR,,0.01,WeatherDisplay:10.37,2013-01-21 05:33:00,
2013-01-20 21:39:00,30.9,29.7,30.17,SW,225,0.0,0.0,95,0.00,CLR,,0.01,WeatherDisplay:10.37,2013-01-21 05:39:00,
2013-01-20 21:44:00,30.7,29.5,30.17,SW,225,0.0,0.0,95,0.00,CLR,,0.01,WeatherDisplay:10.37,2013-01-21 05:44:00,
2013-01-20 21:49:00,30.6,29.6,30.17,SW,225,0.0,0.0,96,0.00,CLR,,0.01,WeatherDisplay:10.37,2013-01-21 05:49:00,
2013-01-20 21:54:00,30.4,29.4,30.17,SW,225,0.0,0.0,96,0.00,CLR,,0.01,WeatherDisplay:10.37,2013-01-21 05:54:00,
2013-01-20 21:59:00,30.4,29.4,30.18,SW,225,0.0,0.0,96,0.00,CLR,,0.01,WeatherDisplay:10.37,2013-01-21 05:59:00,
2013-01-20 22:04:00,30.4,29.4,30.18,SW,225,1.1,0.0,96,0.00,CLR,,0.01,WeatherDisplay:10.37,2013-01-21 06:04:00,
2013-01-20 22:09:00,30.4,29.4,30.18,SW,225,0.0,0.0,96,0.00,CLR,,0.01,WeatherDisplay:10.37,2013-01-21 06:09:00,
2013-01-20 22:14:00,30.4,29.4,30.18,SW,225,1.1,0.0,96,0.00,CLR,,0.01,WeatherDisplay:10.37,2013-01-21 06:14:00,
2013-01-20 22:19:00,30.2,29.2,30.18,SW,225,1.1,0.0,96,0.00,CLR,,0.01,WeatherDisplay:10.37,2013-01-21 06:19:00,
2013-01-20 22:24:00,30.0,29.0,30.18,SW,225,0.0,0.0,96,0.00,CLR,,0.01,WeatherDisplay:10.37,2013-01-21 06:24:00,
2013-01-20 22:29:00,29.8,28.8,30.18,SW,225,0.0,0.0,96,0.00,CLR,,0.01,WeatherDisplay:10.37,2013-01-21 06:29:00,
2013-01-20 22:34:00,30.0,29.0,30.18,SW,225,1.1,0.0,96,0.00,CLR,,0.01,WeatherDisplay:10.37,2013-01-21 06:34:00,
2013-01-20 22:39:00,29.8,28.8,30.18,SW,225,1.1,0.0,96,0.00,CLR,,0.01,WeatherDisplay:10.37,2013-01-21 06:39:00,
2013-01-20 22:44:00,29.8,28.8,30.18,SW,225,0.0,0.0,96,0.00,CLR,,0.01,WeatherDisplay:10.37,2013-01-21 06:44:00,
2013-01-20 22:49:00,30.0,29.0,30.18,SW,225,1.1,0.0,96,0.00,CLR,,0.01,WeatherDisplay:10.37,2013-01-21 06:49:00,
2013-01-20 22:54:00,30.2,29.2,30.19,SW,225,1.1,0.0,96,0.00,CLR,,0.01,WeatherDisplay:10.37,2013-01-21 06:54:00,
2013-01-20 22:59:00,30.0,29.0,30.19,SW,225,0.0,0.0,96,0.00,CLR,,0.01,WeatherDisplay:10.37,2013-01-21 06:59:00,
2013-01-20 23:04:00,30.0,29.0,30.19,SW,225,1.1,0.0,96,0.00,CLR,,0.01,WeatherDisplay:10.37,2013-01-21 07:04:00,
2013-01-20 23:09:00,30.0,29.3,30.18,SW,225,1.1,0.0,97,0.00,CLR,,0.01,WeatherDisplay:10.37,2013-01-21 07:09:00,
2013-01-20 23:14:00,30.0,29.0,30.18,NW,315,1.1,0.0,96,0.00,CLR,,0.01,WeatherDisplay:10.37,2013-01-21 07:14:00,
2013-01-20 23:19:00,30.0,29.0,30.18,West,270,0.0,0.0,96,0.00,CLR,,0.01,WeatherDisplay:10.37,2013-01-21 07:19:00,
2013-01-20 23:24:00,30.4,29.6,30.18,West,270,0.0,0.0,97,0.00,CLR,,0.01,WeatherDisplay:10.37,2013-01-21 07:24:00,
2013-01-20 23:29:00,30.6,29.8,30.18,SW,225,1.1,0.0,97,0.00,CLR,,0.01,WeatherDisplay:10.37,2013-01-21 07:29:00,
2013-01-20 23:34:00,30.4,29.6,30.18,SW,225,1.1,0.0,97,0.00,CLR,,0.01,WeatherDisplay:10.37,2013-01-21 07:34:00,
2013-01-20 23:39:00,30.2,29.5,30.18,SW,225,0.0,0.0,97,0.00,CLR,,0.01,WeatherDisplay:10.37,2013-01-21 07:39:00,
2013-01-20 23:44:00,30.2,29.5,30.18,SW,225,1.1,0.0,97,0.00,CLR,,0.01,WeatherDisplay:10.37,2013-01-21 07:44:00,
2013-01-20 23:49:00,30.2,29.5,30.18,SW,225,1.6,1.6,97,0.00,CLR,,0.01,WeatherDisplay:10.37,2013-01-21 07:49:00,
2013-01-20 23:54:00,30.2,29.5,30.19,SW,225,1.1,0.0,97,0.00,CLR,,0.01,WeatherDisplay:10.37,2013-01-21 07:54:00,
2013-01-20 23:59:00,30.2,29.5,30.19,SW,225,1.1,0.0,97,0.00,CLR,,0.01,WeatherDisplay:10.37,2013-01-21 07:59:00,